sensor_id;sensor_type;location;lat;lon;timestamp;temperature;humidity
11079;DHT22;5592;49.234;7.268;2022-09-30T00:00:21;7.00;99.90
11079;DHT22;5592;49.234;7.268;2022-09-30T00:02:47;7.00;99.90
11079;DHT22;5592;49.234;7.268;2022-09-30T00:05:13;7.10;99.90
11079;DHT22;5592;49.234;7.268;2022-09-30T00:07:39;7.10;99.90
11079;DHT22;5592;49.234;7.268;2022-09-30T00:10:04;7.10;99.90
11079;DHT22;5592;49.234;7.268;2022-09-30T00:12:31;7.20;99.90
11079;DHT22;5592;49.234;7.268;2022-09-30T00:14:57;7.20;99.90
11079;DHT22;5592;49.234;7.268;2022-09-30T00:17:22;7.20;99.90
11079;DHT22;5592;49.234;7.268;2022-09-30T00:19:48;7.20;99.90
11079;DHT22;5592;49.234;7.268;2022-09-30T00:22:14;7.20;99.90
11079;DHT22;5592;49.234;7.268;2022-09-30T00:24:39;7.20;99.90
11079;DHT22;5592;49.234;7.268;2022-09-30T00:27:05;7.20;99.90
11079;DHT22;5592;49.234;7.268;2022-09-30T00:29:31;7.20;99.90
11079;DHT22;5592;49.234;7.268;2022-09-30T00:31:57;7.10;99.90
11079;DHT22;5592;49.234;7.268;2022-09-30T00:34:25;6.90;99.90
11079;DHT22;5592;49.234;7.268;2022-09-30T00:36:53;6.80;99.90
11079;DHT22;5592;49.234;7.268;2022-09-30T00:39:26;6.70;99.90
11079;DHT22;5592;49.234;7.268;2022-09-30T00:41:55;6.50;99.90
11079;DHT22;5592;49.234;7.268;2022-09-30T00:44:44;6.40;99.90
11079;DHT22;5592;49.234;7.268;2022-09-30T00:50:02;6.30;99.90
11079;DHT22;5592;49.234;7.268;2022-09-30T00:52:29;6.30;99.90
11079;DHT22;5592;49.234;7.268;2022-09-30T00:54:57;6.20;99.90
11079;DHT22;5592;49.234;7.268;2022-09-30T00:57:24;6.10;99.90
11079;DHT22;5592;49.234;7.268;2022-09-30T00:59:53;6.00;99.90
11079;DHT22;5592;49.234;7.268;2022-09-30T01:02:19;6.00;99.90
11079;DHT22;5592;49.234;7.268;2022-09-30T01:04:45;6.00;99.90
11079;DHT22;5592;49.234;7.268;2022-09-30T01:07:12;6.00;99.90
11079;DHT22;5592;49.234;7.268;2022-09-30T01:09:40;6.00;99.90
11079;DHT22;5592;49.234;7.268;2022-09-30T01:12:19;6.10;99.90
11079;DHT22;5592;49.234;7.268;2022-09-30T01:14:47;6.10;99.90
11079;DHT22;5592;49.234;7.268;2022-09-30T01:17:47;6.10;99.90
11079;DHT22;5592;49.234;7.268;2022-09-30T01:20:30;6.10;99.90
11079;DHT22;5592;49.234;7.268;2022-09-30T01:31:47;6.00;99.90
11079;DHT22;5592;49.234;7.268;2022-09-30T01:40:09;6.10;99.90
11079;DHT22;5592;49.234;7.268;2022-09-30T01:45:23;6.10;99.90
11079;DHT22;5592;49.234;7.268;2022-09-30T01:51:06;5.90;99.90
11079;DHT22;5592;49.234;7.268;2022-09-30T01:53:53;5.90;99.90
11079;DHT22;5592;49.234;7.268;2022-09-30T01:56:45;5.80;99.90
11079;DHT22;5592;49.234;7.268;2022-09-30T01:59:36;5.80;99.90
11079;DHT22;5592;49.234;7.268;2022-09-30T02:02:09;5.80;99.90
11079;DHT22;5592;49.234;7.268;2022-09-30T02:04:41;5.80;99.90
11079;DHT22;5592;49.234;7.268;2022-09-30T02:07:16;5.80;99.90
11079;DHT22;5592;49.234;7.268;2022-09-30T02:10:03;5.70;99.90
11079;DHT22;5592;49.234;7.268;2022-09-30T02:12:34;5.70;99.90
11079;DHT22;5592;49.234;7.268;2022-09-30T02:15:07;5.70;99.90
11079;DHT22;5592;49.234;7.268;2022-09-30T02:17:40;5.70;99.90
11079;DHT22;5592;49.234;7.268;2022-09-30T02:20:13;5.60;99.90
11079;DHT22;5592;49.234;7.268;2022-09-30T02:22:55;5.60;99.90
11079;DHT22;5592;49.234;7.268;2022-09-30T02:25:28;5.50;99.90
11079;DHT22;5592;49.234;7.268;2022-09-30T02:27:58;5.60;99.90
11079;DHT22;5592;49.234;7.268;2022-09-30T02:30:25;5.60;99.90
11079;DHT22;5592;49.234;7.268;2022-09-30T02:32:59;5.60;99.90
11079;DHT22;5592;49.234;7.268;2022-09-30T02:35:27;5.60;99.90
11079;DHT22;5592;49.234;7.268;2022-09-30T02:38:02;5.60;99.90
11079;DHT22;5592;49.234;7.268;2022-09-30T02:43:01;5.50;99.90
11079;DHT22;5592;49.234;7.268;2022-09-30T02:45:40;5.50;99.90
11079;DHT22;5592;49.234;7.268;2022-09-30T02:48:26;5.50;99.90
11079;DHT22;5592;49.234;7.268;2022-09-30T02:51:03;5.50;99.90
11079;DHT22;5592;49.234;7.268;2022-09-30T02:53:39;5.50;99.90
11079;DHT22;5592;49.234;7.268;2022-09-30T02:56:59;5.40;99.90
11079;DHT22;5592;49.234;7.268;2022-09-30T02:59:29;5.40;99.90
11079;DHT22;5592;49.234;7.268;2022-09-30T03:01:55;5.40;99.90
11079;DHT22;5592;49.234;7.268;2022-09-30T03:04:25;5.40;99.90
11079;DHT22;5592;49.234;7.268;2022-09-30T03:06:51;5.50;99.90
11079;DHT22;5592;49.234;7.268;2022-09-30T03:09:17;5.50;99.90
11079;DHT22;5592;49.234;7.268;2022-09-30T03:11:42;5.50;99.90
11079;DHT22;5592;49.234;7.268;2022-09-30T03:22:35;5.60;99.90
11079;DHT22;5592;49.234;7.268;2022-09-30T03:41:47;5.60;99.90
11079;DHT22;5592;49.234;7.268;2022-09-30T03:44:26;5.50;99.90
11079;DHT22;5592;49.234;7.268;2022-09-30T03:46:58;5.40;99.90
11079;DHT22;5592;49.234;7.268;2022-09-30T03:49:38;5.40;99.90
11079;DHT22;5592;49.234;7.268;2022-09-30T03:52:06;5.50;99.90
11079;DHT22;5592;49.234;7.268;2022-09-30T03:54:33;5.50;99.90
11079;DHT22;5592;49.234;7.268;2022-09-30T03:56:59;5.50;99.90
11079;DHT22;5592;49.234;7.268;2022-09-30T03:59:28;5.50;99.90
11079;DHT22;5592;49.234;7.268;2022-09-30T04:01:54;5.60;99.90
11079;DHT22;5592;49.234;7.268;2022-09-30T04:04:21;5.60;99.90
11079;DHT22;5592;49.234;7.268;2022-09-30T04:06:47;5.60;99.90
11079;DHT22;5592;49.234;7.268;2022-09-30T04:09:13;5.60;99.90
11079;DHT22;5592;49.234;7.268;2022-09-30T04:11:38;5.60;99.90
11079;DHT22;5592;49.234;7.268;2022-09-30T04:14:04;5.70;99.90
11079;DHT22;5592;49.234;7.268;2022-09-30T04:16:33;5.70;99.90
11079;DHT22;5592;49.234;7.268;2022-09-30T04:18:59;5.70;99.90
11079;DHT22;5592;49.234;7.268;2022-09-30T04:21:25;5.70;99.90
11079;DHT22;5592;49.234;7.268;2022-09-30T04:23:53;5.60;99.90
11079;DHT22;5592;49.234;7.268;2022-09-30T04:26:19;5.60;99.90
11079;DHT22;5592;49.234;7.268;2022-09-30T04:28:45;5.60;99.90
11079;DHT22;5592;49.234;7.268;2022-09-30T04:31:12;5.60;99.90
11079;DHT22;5592;49.234;7.268;2022-09-30T04:33:38;5.50;99.90
11079;DHT22;5592;49.234;7.268;2022-09-30T04:36:05;5.50;99.90
11079;DHT22;5592;49.234;7.268;2022-09-30T04:38:32;5.60;99.90
11079;DHT22;5592;49.234;7.268;2022-09-30T04:41:02;5.50;99.90
11079;DHT22;5592;49.234;7.268;2022-09-30T04:43:28;5.50;99.90
11079;DHT22;5592;49.234;7.268;2022-09-30T04:45:54;5.50;99.90
11079;DHT22;5592;49.234;7.268;2022-09-30T04:48:21;5.50;99.90
11079;DHT22;5592;49.234;7.268;2022-09-30T04:50:47;5.50;99.90
11079;DHT22;5592;49.234;7.268;2022-09-30T04:53:19;5.50;99.90
11079;DHT22;5592;49.234;7.268;2022-09-30T04:55:45;5.50;99.90
11079;DHT22;5592;49.234;7.268;2022-09-30T04:58:11;5.50;99.90
11079;DHT22;5592;49.234;7.268;2022-09-30T05:00:37;5.50;99.90
11079;DHT22;5592;49.234;7.268;2022-09-30T05:03:03;5.50;99.90
11079;DHT22;5592;49.234;7.268;2022-09-30T05:05:29;5.50;99.90
11079;DHT22;5592;49.234;7.268;2022-09-30T05:08:00;5.50;99.90
11079;DHT22;5592;49.234;7.268;2022-09-30T05:10:26;5.60;99.90
11079;DHT22;5592;49.234;7.268;2022-09-30T05:12:52;5.60;99.90
11079;DHT22;5592;49.234;7.268;2022-09-30T05:15:17;5.50;99.90
11079;DHT22;5592;49.234;7.268;2022-09-30T05:17:43;5.50;99.90
11079;DHT22;5592;49.234;7.268;2022-09-30T05:20:09;5.50;99.90
11079;DHT22;5592;49.234;7.268;2022-09-30T05:22:36;5.50;99.90
11079;DHT22;5592;49.234;7.268;2022-09-30T05:25:04;5.50;99.90
11079;DHT22;5592;49.234;7.268;2022-09-30T05:27:30;5.30;99.90
11079;DHT22;5592;49.234;7.268;2022-09-30T05:29:59;5.30;99.90
11079;DHT22;5592;49.234;7.268;2022-09-30T05:32:25;5.30;99.90
11079;DHT22;5592;49.234;7.268;2022-09-30T05:34:50;5.30;99.90
11079;DHT22;5592;49.234;7.268;2022-09-30T05:37:16;5.30;99.90
11079;DHT22;5592;49.234;7.268;2022-09-30T05:39:42;5.20;99.90
11079;DHT22;5592;49.234;7.268;2022-09-30T05:42:10;5.20;99.90
11079;DHT22;5592;49.234;7.268;2022-09-30T05:44:36;5.20;99.90
11079;DHT22;5592;49.234;7.268;2022-09-30T05:47:01;5.10;99.90
11079;DHT22;5592;49.234;7.268;2022-09-30T05:49:27;5.10;99.90
11079;DHT22;5592;49.234;7.268;2022-09-30T05:51:53;5.10;99.90
11079;DHT22;5592;49.234;7.268;2022-09-30T05:54:18;5.10;99.90
11079;DHT22;5592;49.234;7.268;2022-09-30T05:56:44;5.10;99.90
11079;DHT22;5592;49.234;7.268;2022-09-30T05:59:10;5.10;99.90
11079;DHT22;5592;49.234;7.268;2022-09-30T06:01:36;5.10;99.90
11079;DHT22;5592;49.234;7.268;2022-09-30T06:04:02;5.00;99.90
11079;DHT22;5592;49.234;7.268;2022-09-30T06:06:27;5.00;99.90
11079;DHT22;5592;49.234;7.268;2022-09-30T06:08:54;4.90;99.90
11079;DHT22;5592;49.234;7.268;2022-09-30T06:11:21;5.00;99.90
11079;DHT22;5592;49.234;7.268;2022-09-30T06:13:50;5.00;99.90
11079;DHT22;5592;49.234;7.268;2022-09-30T06:16:16;5.00;99.90
11079;DHT22;5592;49.234;7.268;2022-09-30T06:18:45;5.00;99.90
11079;DHT22;5592;49.234;7.268;2022-09-30T06:21:13;5.00;99.90
11079;DHT22;5592;49.234;7.268;2022-09-30T06:23:42;5.00;99.90
11079;DHT22;5592;49.234;7.268;2022-09-30T06:26:11;5.10;99.90
11079;DHT22;5592;49.234;7.268;2022-09-30T06:28:40;5.00;99.90
11079;DHT22;5592;49.234;7.268;2022-09-30T06:31:07;5.10;99.90
11079;DHT22;5592;49.234;7.268;2022-09-30T06:33:33;5.20;99.90
11079;DHT22;5592;49.234;7.268;2022-09-30T06:35:58;5.20;99.90
11079;DHT22;5592;49.234;7.268;2022-09-30T06:38:29;5.30;99.90
11079;DHT22;5592;49.234;7.268;2022-09-30T06:41:00;5.30;99.90
11079;DHT22;5592;49.234;7.268;2022-09-30T06:43:25;5.40;99.90
11079;DHT22;5592;49.234;7.268;2022-09-30T06:45:51;5.30;99.90
11079;DHT22;5592;49.234;7.268;2022-09-30T06:48:17;5.40;99.90
11079;DHT22;5592;49.234;7.268;2022-09-30T06:50:43;5.50;99.90
11079;DHT22;5592;49.234;7.268;2022-09-30T06:53:11;5.60;99.90
11079;DHT22;5592;49.234;7.268;2022-09-30T06:55:38;5.70;99.90
11079;DHT22;5592;49.234;7.268;2022-09-30T06:58:05;5.70;99.90
11079;DHT22;5592;49.234;7.268;2022-09-30T07:00:34;5.80;99.90
11079;DHT22;5592;49.234;7.268;2022-09-30T07:03:00;5.90;99.90
11079;DHT22;5592;49.234;7.268;2022-09-30T07:05:26;6.00;99.90
11079;DHT22;5592;49.234;7.268;2022-09-30T07:07:52;6.00;99.90
11079;DHT22;5592;49.234;7.268;2022-09-30T07:10:19;6.10;99.90
11079;DHT22;5592;49.234;7.268;2022-09-30T07:12:51;6.10;99.90
11079;DHT22;5592;49.234;7.268;2022-09-30T07:15:20;6.20;99.90
11079;DHT22;5592;49.234;7.268;2022-09-30T07:17:54;6.30;99.90
11079;DHT22;5592;49.234;7.268;2022-09-30T07:20:21;6.30;99.90
11079;DHT22;5592;49.234;7.268;2022-09-30T07:22:52;6.30;99.90
11079;DHT22;5592;49.234;7.268;2022-09-30T07:25:19;6.40;99.90
11079;DHT22;5592;49.234;7.268;2022-09-30T07:27:45;6.70;99.90
11079;DHT22;5592;49.234;7.268;2022-09-30T07:30:11;6.80;99.90
11079;DHT22;5592;49.234;7.268;2022-09-30T07:32:37;7.00;99.90
11079;DHT22;5592;49.234;7.268;2022-09-30T07:35:03;7.10;99.90
11079;DHT22;5592;49.234;7.268;2022-09-30T07:37:29;7.20;99.90
11079;DHT22;5592;49.234;7.268;2022-09-30T07:40:01;7.30;99.90
11079;DHT22;5592;49.234;7.268;2022-09-30T07:42:27;7.50;99.90
11079;DHT22;5592;49.234;7.268;2022-09-30T07:44:55;7.70;99.90
11079;DHT22;5592;49.234;7.268;2022-09-30T07:47:21;7.80;99.90
11079;DHT22;5592;49.234;7.268;2022-09-30T07:49:47;7.90;99.90
11079;DHT22;5592;49.234;7.268;2022-09-30T07:52:13;7.90;99.90
11079;DHT22;5592;49.234;7.268;2022-09-30T07:54:39;8.10;99.90
11079;DHT22;5592;49.234;7.268;2022-09-30T07:57:06;8.30;99.90
11079;DHT22;5592;49.234;7.268;2022-09-30T07:59:36;8.80;99.90
11079;DHT22;5592;49.234;7.268;2022-09-30T08:02:04;9.00;99.90
11079;DHT22;5592;49.234;7.268;2022-09-30T08:04:29;9.20;99.90
11079;DHT22;5592;49.234;7.268;2022-09-30T08:06:58;9.20;99.90
11079;DHT22;5592;49.234;7.268;2022-09-30T08:09:26;9.30;99.90
11079;DHT22;5592;49.234;7.268;2022-09-30T08:11:53;9.40;99.90
11079;DHT22;5592;49.234;7.268;2022-09-30T08:14:21;9.40;99.90
11079;DHT22;5592;49.234;7.268;2022-09-30T08:16:48;9.40;99.90
11079;DHT22;5592;49.234;7.268;2022-09-30T08:19:20;9.50;99.90
11079;DHT22;5592;49.234;7.268;2022-09-30T08:21:46;9.70;99.90
11079;DHT22;5592;49.234;7.268;2022-09-30T08:24:12;9.70;99.90
11079;DHT22;5592;49.234;7.268;2022-09-30T08:26:38;9.80;99.90
11079;DHT22;5592;49.234;7.268;2022-09-30T08:29:05;9.90;99.90
11079;DHT22;5592;49.234;7.268;2022-09-30T08:31:31;10.00;99.90
11079;DHT22;5592;49.234;7.268;2022-09-30T08:34:00;10.20;99.90
11079;DHT22;5592;49.234;7.268;2022-09-30T08:36:27;10.40;99.90
11079;DHT22;5592;49.234;7.268;2022-09-30T08:38:53;10.60;99.90
11079;DHT22;5592;49.234;7.268;2022-09-30T08:52:10;11.00;99.90
11079;DHT22;5592;49.234;7.268;2022-09-30T08:54:38;11.20;99.90
11079;DHT22;5592;49.234;7.268;2022-09-30T08:57:05;11.50;99.90
11079;DHT22;5592;49.234;7.268;2022-09-30T09:02:29;11.80;99.90
11079;DHT22;5592;49.234;7.268;2022-09-30T09:04:59;11.90;99.90
11079;DHT22;5592;49.234;7.268;2022-09-30T09:10:43;12.60;99.90
11079;DHT22;5592;49.234;7.268;2022-09-30T09:16:10;13.00;99.90
11079;DHT22;5592;49.234;7.268;2022-09-30T09:21:47;13.60;99.90
11079;DHT22;5592;49.234;7.268;2022-09-30T09:24:25;14.00;99.90
11079;DHT22;5592;49.234;7.268;2022-09-30T09:26:56;14.70;99.90
11079;DHT22;5592;49.234;7.268;2022-09-30T09:29:37;15.30;99.90
11079;DHT22;5592;49.234;7.268;2022-09-30T09:32:16;16.00;99.90
11079;DHT22;5592;49.234;7.268;2022-09-30T09:34:42;17.20;99.90
11079;DHT22;5592;49.234;7.268;2022-09-30T09:43:26;20.60;99.90
11079;DHT22;5592;49.234;7.268;2022-09-30T09:46:12;21.30;99.90
11079;DHT22;5592;49.234;7.268;2022-09-30T09:48:41;21.50;99.90
11079;DHT22;5592;49.234;7.268;2022-09-30T09:51:33;22.10;99.90
11079;DHT22;5592;49.234;7.268;2022-09-30T09:54:01;22.10;99.90
11079;DHT22;5592;49.234;7.268;2022-09-30T09:56:30;22.60;99.90
11079;DHT22;5592;49.234;7.268;2022-09-30T10:01:36;23.10;99.90
11079;DHT22;5592;49.234;7.268;2022-09-30T10:09:32;23.30;99.90
11079;DHT22;5592;49.234;7.268;2022-09-30T10:12:17;22.90;99.90
11079;DHT22;5592;49.234;7.268;2022-09-30T10:14:59;21.70;99.90
11079;DHT22;5592;49.234;7.268;2022-09-30T10:17:33;22.40;99.90
11079;DHT22;5592;49.234;7.268;2022-09-30T10:20:04;22.60;99.90
11079;DHT22;5592;49.234;7.268;2022-09-30T10:22:32;23.10;99.90
11079;DHT22;5592;49.234;7.268;2022-09-30T10:28:00;23.70;99.90
11079;DHT22;5592;49.234;7.268;2022-09-30T10:30:49;23.60;99.20
11079;DHT22;5592;49.234;7.268;2022-09-30T10:33:27;23.60;97.60
11079;DHT22;5592;49.234;7.268;2022-09-30T10:36:06;23.60;98.20
11079;DHT22;5592;49.234;7.268;2022-09-30T10:38:33;23.60;97.40
11079;DHT22;5592;49.234;7.268;2022-09-30T10:41:07;23.10;98.90
11079;DHT22;5592;49.234;7.268;2022-09-30T10:44:01;23.10;98.00
11079;DHT22;5592;49.234;7.268;2022-09-30T10:46:31;23.00;99.80
11079;DHT22;5592;49.234;7.268;2022-09-30T10:49:09;23.30;95.10
11079;DHT22;5592;49.234;7.268;2022-09-30T10:51:36;23.60;93.70
11079;DHT22;5592;49.234;7.268;2022-09-30T10:54:04;23.00;94.80
11079;DHT22;5592;49.234;7.268;2022-09-30T10:56:43;23.00;97.20
11079;DHT22;5592;49.234;7.268;2022-09-30T10:59:27;22.60;94.80
11079;DHT22;5592;49.234;7.268;2022-09-30T11:01:59;22.40;97.40
11079;DHT22;5592;49.234;7.268;2022-09-30T11:04:42;22.60;97.10
11079;DHT22;5592;49.234;7.268;2022-09-30T11:09:45;22.40;97.10
11079;DHT22;5592;49.234;7.268;2022-09-30T11:12:53;22.60;98.90
11079;DHT22;5592;49.234;7.268;2022-09-30T11:18:04;22.40;97.70
11079;DHT22;5592;49.234;7.268;2022-09-30T11:20:35;22.30;97.90
11079;DHT22;5592;49.234;7.268;2022-09-30T11:23:24;22.20;97.60
11079;DHT22;5592;49.234;7.268;2022-09-30T11:26:29;22.10;99.90
11079;DHT22;5592;49.234;7.268;2022-09-30T11:31:42;20.50;98.70
11079;DHT22;5592;49.234;7.268;2022-09-30T11:40:02;18.40;99.90
11079;DHT22;5592;49.234;7.268;2022-09-30T11:42:54;18.00;99.90
11079;DHT22;5592;49.234;7.268;2022-09-30T12:05:36;16.50;99.90
11079;DHT22;5592;49.234;7.268;2022-09-30T12:08:29;16.40;99.90
11079;DHT22;5592;49.234;7.268;2022-09-30T12:11:03;16.40;99.90
11079;DHT22;5592;49.234;7.268;2022-09-30T12:13:37;16.70;99.90
11079;DHT22;5592;49.234;7.268;2022-09-30T12:16:09;17.00;99.90
11079;DHT22;5592;49.234;7.268;2022-09-30T12:18:40;17.30;99.90
11079;DHT22;5592;49.234;7.268;2022-09-30T12:21:23;17.50;99.90
11079;DHT22;5592;49.234;7.268;2022-09-30T12:24:01;17.60;99.90
11079;DHT22;5592;49.234;7.268;2022-09-30T12:26:29;17.60;99.90
11079;DHT22;5592;49.234;7.268;2022-09-30T12:28:56;17.20;99.90
11079;DHT22;5592;49.234;7.268;2022-09-30T12:34:51;16.30;99.90
11079;DHT22;5592;49.234;7.268;2022-09-30T12:48:37;15.80;99.90
11079;DHT22;5592;49.234;7.268;2022-09-30T12:51:05;15.70;99.90
11079;DHT22;5592;49.234;7.268;2022-09-30T12:53:34;15.50;99.90
11079;DHT22;5592;49.234;7.268;2022-09-30T12:58:39;15.40;99.90
11079;DHT22;5592;49.234;7.268;2022-09-30T13:01:15;15.30;99.90
11079;DHT22;5592;49.234;7.268;2022-09-30T13:04:32;15.40;99.90
11079;DHT22;5592;49.234;7.268;2022-09-30T13:09:59;15.70;99.90
11079;DHT22;5592;49.234;7.268;2022-09-30T13:12:41;15.70;99.90
11079;DHT22;5592;49.234;7.268;2022-09-30T13:17:56;16.10;99.90
11079;DHT22;5592;49.234;7.268;2022-09-30T13:31:29;16.40;99.90
11079;DHT22;5592;49.234;7.268;2022-09-30T13:41:44;16.10;99.90
11079;DHT22;5592;49.234;7.268;2022-09-30T13:44:18;16.10;99.90
11079;DHT22;5592;49.234;7.268;2022-09-30T13:46:49;16.10;99.90
11079;DHT22;5592;49.234;7.268;2022-09-30T13:49:21;16.30;99.90
11079;DHT22;5592;49.234;7.268;2022-09-30T13:51:50;16.50;99.90
11079;DHT22;5592;49.234;7.268;2022-09-30T13:54:26;16.40;99.90
11079;DHT22;5592;49.234;7.268;2022-09-30T13:56:56;16.30;99.90
11079;DHT22;5592;49.234;7.268;2022-09-30T14:07:36;16.10;99.90
11079;DHT22;5592;49.234;7.268;2022-09-30T14:24:01;15.90;99.90
11079;DHT22;5592;49.234;7.268;2022-09-30T14:32:09;15.70;99.90
11079;DHT22;5592;49.234;7.268;2022-09-30T14:34:35;15.60;99.90
11079;DHT22;5592;49.234;7.268;2022-09-30T14:37:02;15.60;99.90
11079;DHT22;5592;49.234;7.268;2022-09-30T14:39:30;15.50;99.90
11079;DHT22;5592;49.234;7.268;2022-09-30T14:41:59;15.30;99.90
11079;DHT22;5592;49.234;7.268;2022-09-30T14:44:29;15.30;99.90
11079;DHT22;5592;49.234;7.268;2022-09-30T14:46:58;15.20;99.90
11079;DHT22;5592;49.234;7.268;2022-09-30T14:49:28;15.20;99.90
11079;DHT22;5592;49.234;7.268;2022-09-30T14:51:58;15.20;99.90
11079;DHT22;5592;49.234;7.268;2022-09-30T14:54:29;15.20;99.90
11079;DHT22;5592;49.234;7.268;2022-09-30T14:56:56;15.20;99.90
11079;DHT22;5592;49.234;7.268;2022-09-30T14:59:31;15.10;99.90
11079;DHT22;5592;49.234;7.268;2022-09-30T15:02:03;15.10;99.90
11079;DHT22;5592;49.234;7.268;2022-09-30T15:04:38;15.00;99.90
11079;DHT22;5592;49.234;7.268;2022-09-30T15:07:09;15.00;99.90
11079;DHT22;5592;49.234;7.268;2022-09-30T15:09:37;15.00;99.90
11079;DHT22;5592;49.234;7.268;2022-09-30T15:12:05;14.90;99.90
11079;DHT22;5592;49.234;7.268;2022-09-30T15:14:31;14.90;99.90
11079;DHT22;5592;49.234;7.268;2022-09-30T15:16:58;14.90;99.90
11079;DHT22;5592;49.234;7.268;2022-09-30T15:19:30;14.90;99.90
11079;DHT22;5592;49.234;7.268;2022-09-30T15:22:01;14.90;99.90
11079;DHT22;5592;49.234;7.268;2022-09-30T15:24:29;14.80;99.90
11079;DHT22;5592;49.234;7.268;2022-09-30T15:26:56;14.80;99.90
11079;DHT22;5592;49.234;7.268;2022-09-30T15:29:22;14.70;99.90
11079;DHT22;5592;49.234;7.268;2022-09-30T15:31:52;14.70;99.90
11079;DHT22;5592;49.234;7.268;2022-09-30T15:34:24;14.60;99.90
11079;DHT22;5592;49.234;7.268;2022-09-30T15:37:03;14.50;99.90
11079;DHT22;5592;49.234;7.268;2022-09-30T15:39:40;14.50;99.90
11079;DHT22;5592;49.234;7.268;2022-09-30T15:42:37;14.40;99.90
11079;DHT22;5592;49.234;7.268;2022-09-30T15:47:59;14.30;99.90
11079;DHT22;5592;49.234;7.268;2022-09-30T15:50:43;14.20;99.90
11079;DHT22;5592;49.234;7.268;2022-09-30T15:55:41;14.00;99.90
11079;DHT22;5592;49.234;7.268;2022-09-30T16:01:19;13.90;99.90
11079;DHT22;5592;49.234;7.268;2022-09-30T16:04:09;13.80;99.90
11079;DHT22;5592;49.234;7.268;2022-09-30T16:14:48;13.50;99.90
11079;DHT22;5592;49.234;7.268;2022-09-30T16:17:25;13.40;99.90
11079;DHT22;5592;49.234;7.268;2022-09-30T16:19:53;13.30;99.90
11079;DHT22;5592;49.234;7.268;2022-09-30T16:25:19;13.00;99.90
11079;DHT22;5592;49.234;7.268;2022-09-30T16:32:57;12.50;99.90
11079;DHT22;5592;49.234;7.268;2022-09-30T16:35:26;12.30;99.90
11079;DHT22;5592;49.234;7.268;2022-09-30T16:38:03;12.10;99.90
11079;DHT22;5592;49.234;7.268;2022-09-30T16:40:30;11.90;99.90
11079;DHT22;5592;49.234;7.268;2022-09-30T16:51:13;11.30;99.90
11079;DHT22;5592;49.234;7.268;2022-09-30T16:53:39;11.10;99.90
11079;DHT22;5592;49.234;7.268;2022-09-30T16:58:35;10.80;99.90
11079;DHT22;5592;49.234;7.268;2022-09-30T17:01:01;10.70;99.90
11079;DHT22;5592;49.234;7.268;2022-09-30T17:03:26;10.50;99.90
11079;DHT22;5592;49.234;7.268;2022-09-30T17:05:52;10.40;99.90
11079;DHT22;5592;49.234;7.268;2022-09-30T17:08:21;10.30;99.90
11079;DHT22;5592;49.234;7.268;2022-09-30T17:13:25;10.00;99.90
11079;DHT22;5592;49.234;7.268;2022-09-30T17:15:53;9.90;99.90
11079;DHT22;5592;49.234;7.268;2022-09-30T17:18:20;9.80;99.90
11079;DHT22;5592;49.234;7.268;2022-09-30T17:20:47;9.70;99.90
11079;DHT22;5592;49.234;7.268;2022-09-30T17:23:23;9.50;99.90
11079;DHT22;5592;49.234;7.268;2022-09-30T17:25:50;9.40;99.90
11079;DHT22;5592;49.234;7.268;2022-09-30T17:28:16;9.30;99.90
11079;DHT22;5592;49.234;7.268;2022-09-30T17:30:43;9.20;99.90
11079;DHT22;5592;49.234;7.268;2022-09-30T17:33:13;9.10;99.90
11079;DHT22;5592;49.234;7.268;2022-09-30T17:35:39;9.00;99.90
11079;DHT22;5592;49.234;7.268;2022-09-30T17:38:06;8.80;99.90
11079;DHT22;5592;49.234;7.268;2022-09-30T17:40:32;8.70;99.90
11079;DHT22;5592;49.234;7.268;2022-09-30T17:43:16;8.60;99.90
11079;DHT22;5592;49.234;7.268;2022-09-30T17:45:44;8.70;99.90
11079;DHT22;5592;49.234;7.268;2022-09-30T17:48:16;8.60;99.90
11079;DHT22;5592;49.234;7.268;2022-09-30T17:50:46;8.50;99.90
11079;DHT22;5592;49.234;7.268;2022-09-30T17:53:14;8.40;99.90
11079;DHT22;5592;49.234;7.268;2022-09-30T17:55:44;8.20;99.90
11079;DHT22;5592;49.234;7.268;2022-09-30T17:58:17;8.00;99.90
11079;DHT22;5592;49.234;7.268;2022-09-30T18:00:43;7.90;99.90
11079;DHT22;5592;49.234;7.268;2022-09-30T18:03:09;7.80;99.90
11079;DHT22;5592;49.234;7.268;2022-09-30T18:05:36;7.70;99.90
11079;DHT22;5592;49.234;7.268;2022-09-30T18:08:01;7.60;99.90
11079;DHT22;5592;49.234;7.268;2022-09-30T18:10:27;7.60;99.90
11079;DHT22;5592;49.234;7.268;2022-09-30T18:12:54;7.50;99.90
11079;DHT22;5592;49.234;7.268;2022-09-30T18:15:21;7.40;99.90
11079;DHT22;5592;49.234;7.268;2022-09-30T18:17:47;7.40;99.90
11079;DHT22;5592;49.234;7.268;2022-09-30T18:20:13;7.40;99.90
11079;DHT22;5592;49.234;7.268;2022-09-30T18:22:39;7.40;99.90
11079;DHT22;5592;49.234;7.268;2022-09-30T18:25:06;7.30;99.90
11079;DHT22;5592;49.234;7.268;2022-09-30T18:27:56;7.20;99.90
11079;DHT22;5592;49.234;7.268;2022-09-30T18:30:22;7.00;99.90
11079;DHT22;5592;49.234;7.268;2022-09-30T18:32:50;6.90;99.90
11079;DHT22;5592;49.234;7.268;2022-09-30T18:35:18;6.80;99.90
11079;DHT22;5592;49.234;7.268;2022-09-30T18:37:46;6.70;99.90
11079;DHT22;5592;49.234;7.268;2022-09-30T18:45:26;6.50;99.90
11079;DHT22;5592;49.234;7.268;2022-09-30T18:50:28;6.30;99.90
11079;DHT22;5592;49.234;7.268;2022-09-30T18:52:55;6.30;99.90
11079;DHT22;5592;49.234;7.268;2022-09-30T18:55:30;6.20;99.90
11079;DHT22;5592;49.234;7.268;2022-09-30T18:57:56;6.20;99.90
11079;DHT22;5592;49.234;7.268;2022-09-30T19:00:22;6.20;99.90
11079;DHT22;5592;49.234;7.268;2022-09-30T19:02:50;6.10;99.90
11079;DHT22;5592;49.234;7.268;2022-09-30T19:05:16;6.00;99.90
11079;DHT22;5592;49.234;7.268;2022-09-30T19:07:42;6.00;99.90
11079;DHT22;5592;49.234;7.268;2022-09-30T19:10:09;6.00;99.90
11079;DHT22;5592;49.234;7.268;2022-09-30T19:12:38;6.10;99.90
11079;DHT22;5592;49.234;7.268;2022-09-30T19:15:06;6.00;99.90
11079;DHT22;5592;49.234;7.268;2022-09-30T19:17:32;5.90;99.90
11079;DHT22;5592;49.234;7.268;2022-09-30T19:19:59;5.90;99.90
11079;DHT22;5592;49.234;7.268;2022-09-30T19:22:26;5.90;99.90
11079;DHT22;5592;49.234;7.268;2022-09-30T19:24:52;5.80;99.90
11079;DHT22;5592;49.234;7.268;2022-09-30T19:27:17;5.70;99.90
11079;DHT22;5592;49.234;7.268;2022-09-30T19:29:44;5.60;99.90
11079;DHT22;5592;49.234;7.268;2022-09-30T19:37:20;5.50;99.90
11079;DHT22;5592;49.234;7.268;2022-09-30T19:39:46;5.40;99.90
11079;DHT22;5592;49.234;7.268;2022-09-30T19:44:42;5.30;99.90
11079;DHT22;5592;49.234;7.268;2022-09-30T19:47:07;5.30;99.90
11079;DHT22;5592;49.234;7.268;2022-09-30T19:49:33;5.20;99.90
11079;DHT22;5592;49.234;7.268;2022-09-30T19:51:58;5.20;99.90
11079;DHT22;5592;49.234;7.268;2022-09-30T19:54:25;5.20;99.90
11079;DHT22;5592;49.234;7.268;2022-09-30T19:56:50;5.20;99.90
11079;DHT22;5592;49.234;7.268;2022-09-30T19:59:19;5.10;99.90
11079;DHT22;5592;49.234;7.268;2022-09-30T20:01:45;5.00;99.90
11079;DHT22;5592;49.234;7.268;2022-09-30T20:04:11;4.90;99.90
11079;DHT22;5592;49.234;7.268;2022-09-30T20:06:39;5.00;99.90
11079;DHT22;5592;49.234;7.268;2022-09-30T20:09:06;5.00;99.90
11079;DHT22;5592;49.234;7.268;2022-09-30T20:11:35;5.10;99.90
11079;DHT22;5592;49.234;7.268;2022-09-30T20:14:02;5.20;99.90
11079;DHT22;5592;49.234;7.268;2022-09-30T20:16:47;5.20;99.90
11079;DHT22;5592;49.234;7.268;2022-09-30T20:19:16;5.10;99.90
11079;DHT22;5592;49.234;7.268;2022-09-30T20:21:43;5.00;99.90
11079;DHT22;5592;49.234;7.268;2022-09-30T20:24:10;4.90;99.90